createdAt,value
2023-01-05T00:04:05.619Z,101234.28
2023-01-05T00:09:29.326Z,101227.47
2023-01-05T00:15:10.000Z,101206.03
2023-01-05T00:20:52.144Z,101192.00
2023-01-05T00:26:20.361Z,101184.97
2023-01-05T00:31:44.242Z,101176.25
2023-01-05T00:37:14.504Z,101169.22
2023-01-05T00:42:37.624Z,101181.91
2023-01-05T00:48:00.795Z,101172.56
2023-01-05T00:53:25.220Z,101172.19
2023-01-05T00:58:48.923Z,101139.75
2023-01-05T01:04:12.322Z,101131.19
2023-01-05T01:09:37.632Z,101152.06
2023-01-05T01:15:01.256Z,101145.28
2023-01-05T01:20:30.242Z,101123.88
2023-01-05T01:26:00.943Z,101108.53
2023-01-05T01:31:25.251Z,101114.44
2023-01-05T01:36:48.624Z,101094.31
2023-01-05T01:42:18.363Z,101071.81
2023-01-05T01:47:47.053Z,101079.41
2023-01-05T01:53:16.471Z,101058.25
2023-01-05T01:58:40.579Z,101045.31
2023-01-05T02:04:11.671Z,101050.97
2023-01-05T02:09:42.342Z,101060.88
2023-01-05T02:15:23.654Z,101052.47
2023-01-05T02:21:17.232Z,101051.47
2023-01-05T02:27:26.705Z,101031.09
2023-01-05T02:32:58.238Z,101022.66
2023-01-05T02:38:32.078Z,101014.78
2023-01-05T02:44:01.314Z,100998.47
2023-01-05T02:49:34.056Z,100995.63
2023-01-05T02:55:00.706Z,101000.69
2023-01-05T03:00:34.578Z,100976.34
2023-01-05T03:06:07.107Z,100959.00
2023-01-05T03:12:02.138Z,100952.81
2023-01-05T03:17:32.165Z,100938.47
2023-01-05T03:23:24.245Z,100944.66
2023-01-05T03:29:14.099Z,100929.44
2023-01-05T03:35:05.754Z,100940.38
2023-01-05T03:40:35.881Z,100920.41
2023-01-05T03:46:12.272Z,100914.19
2023-01-05T03:51:41.658Z,100918.44
2023-01-05T03:57:14.172Z,100904.69
2023-01-05T04:02:45.354Z,100899.78
2023-01-05T04:08:14.201Z,100886.69
2023-01-05T04:13:40.675Z,100877.00
2023-01-05T04:19:08.346Z,100887.44
2023-01-05T04:24:39.006Z,100878.81
2023-01-05T04:30:11.197Z,100872.63
2023-01-05T04:35:40.392Z,100871.22
2023-01-05T04:41:08.577Z,100864.44
2023-01-05T04:46:39.462Z,100837.69
2023-01-05T04:52:10.825Z,100843.09
2023-01-05T04:57:40.047Z,100826.78
2023-01-05T05:03:09.250Z,100803.84
2023-01-05T05:08:33.324Z,100809.19
2023-01-05T05:13:58.413Z,100779.34
2023-01-05T05:19:22.939Z,100758.22
2023-01-05T05:24:46.794Z,100739.06
2023-01-05T05:30:16.292Z,100731.41
2023-01-05T05:35:41.241Z,100724.44
2023-01-05T05:41:04.724Z,100702.78
2023-01-05T05:46:29.367Z,100706.44
2023-01-05T05:51:55.230Z,100686.13
2023-01-05T05:57:19.277Z,100690.22
2023-01-05T06:02:42.999Z,100677.66
2023-01-05T06:08:07.990Z,100661.47
2023-01-05T06:13:31.448Z,100669.00
2023-01-05T06:18:54.582Z,100651.16
2023-01-05T06:24:20.038Z,100632.81
2023-01-05T06:29:43.733Z,100615.28
2023-01-05T06:35:08.421Z,100618.63
2023-01-05T06:40:33.613Z,100605.78
2023-01-05T06:45:57.029Z,100579.50
2023-01-05T06:51:20.578Z,100566.25
2023-01-05T06:56:45.716Z,100570.97
2023-01-05T07:02:15.211Z,100555.63
2023-01-05T07:07:39.505Z,100554.97
2023-01-05T07:13:04.136Z,100538.31
2023-01-05T07:18:27.703Z,100509.53
2023-01-05T07:23:51.745Z,100500.19
2023-01-05T07:29:16.714Z,100489.94
2023-01-05T07:34:54.823Z,100503.00
2023-01-05T07:40:25.031Z,100465.00
2023-01-05T07:45:59.785Z,100467.72
2023-01-05T07:51:29.245Z,100450.63
2023-01-05T07:56:57.893Z,100441.41
2023-01-05T08:02:35.479Z,100439.91
2023-01-05T08:08:05.342Z,100433.25
2023-01-05T08:14:06.524Z,100396.03
2023-01-05T08:19:36.296Z,100359.50
2023-01-05T08:25:05.621Z,100348.69
2023-01-05T08:30:33.950Z,100332.66
2023-01-05T08:36:09.358Z,100318.00
2023-01-05T08:41:40.079Z,100306.97
2023-01-05T08:47:09.460Z,100301.44
2023-01-05T08:52:39.811Z,100297.44
2023-01-05T08:58:08.978Z,100295.41
2023-01-05T09:03:38.724Z,100261.16
2023-01-05T09:09:09.224Z,100266.81
2023-01-05T09:14:39.195Z,100247.72
2023-01-05T09:20:08.966Z,100239.72
2023-01-05T09:25:41.078Z,100211.66
2023-01-05T09:31:11.825Z,100205.19
2023-01-05T09:36:41.330Z,100178.84
2023-01-05T09:42:15.332Z,100181.66
2023-01-05T09:47:46.844Z,100161.09
2023-01-05T09:53:17.893Z,100151.84
2023-01-05T09:58:49.030Z,100123.34
2023-01-05T10:04:25.235Z,100118.53
2023-01-05T10:10:01.694Z,100081.00
2023-01-05T10:15:37.505Z,100090.88
2023-01-05T10:21:16.841Z,100070.06
2023-01-05T10:33:14.858Z,100038.13
2023-01-05T10:38:52.807Z,100021.06
2023-01-05T10:44:43.771Z,100009.00
2023-01-05T10:50:31.842Z,99983.66
2023-01-05T10:56:04.910Z,99966.38
2023-01-05T11:01:34.900Z,99956.63
2023-01-05T14:47:42.041Z,99579.34
2023-01-05T14:53:14.167Z,99569.13
2023-01-05T14:59:08.206Z,99570.78
2023-01-05T15:04:40.521Z,99555.06
2023-01-05T15:10:38.738Z,99566.00
2023-01-05T15:16:16.190Z,99555.44
2023-01-05T15:22:13.456Z,99519.50
2023-01-05T15:28:04.961Z,99518.63
2023-01-05T15:33:36.876Z,99534.75
2023-01-05T15:39:24.208Z,99550.25
2023-01-05T15:44:56.440Z,99557.69
2023-01-05T15:50:30.651Z,99559.13
2023-01-05T15:55:58.861Z,99552.53
2023-01-05T16:01:30.076Z,99542.66
2023-01-05T16:06:59.956Z,99547.41
2023-01-05T16:12:26.868Z,99533.97
2023-01-05T16:17:55.489Z,99536.44
2023-01-05T16:23:25.850Z,99514.97
2023-01-05T16:28:50.431Z,99513.25
2023-01-05T16:34:24.253Z,99513.31
2023-01-05T16:40:02.959Z,99490.56
2023-01-05T16:45:35.307Z,99485.19
2023-01-05T16:51:06.394Z,99520.53
2023-01-05T16:56:50.205Z,99506.31
2023-01-05T17:02:47.980Z,99505.69
2023-01-05T17:08:21.299Z,99490.16
2023-01-05T17:13:52.398Z,99481.41
2023-01-05T17:19:22.554Z,99489.50
2023-01-05T17:24:53.448Z,99494.28
2023-01-05T17:30:23.245Z,99484.97
2023-01-05T17:35:53.977Z,99482.50
2023-01-05T17:41:23.676Z,99478.16
2023-01-05T17:46:53.330Z,99466.56
2023-01-05T17:52:23.291Z,99468.22
2023-01-05T17:57:52.007Z,99465.78
2023-01-05T18:03:22.927Z,99446.34
2023-01-05T18:08:53.311Z,99445.50
2023-01-05T18:14:22.369Z,99450.88
2023-01-05T18:19:51.389Z,99441.78
2023-01-05T18:25:21.690Z,99434.75
2023-01-05T18:30:51.355Z,99442.59
2023-01-05T18:36:20.371Z,99448.41
2023-01-05T18:41:50.631Z,99416.34
2023-01-05T18:47:20.598Z,99444.25
2023-01-05T18:52:50.180Z,99424.00
2023-01-05T18:58:20.371Z,99433.50
2023-01-05T19:03:50.637Z,99417.38
2023-01-05T19:09:20.228Z,99421.31
2023-01-05T19:14:50.776Z,99416.16
2023-01-05T19:20:20.397Z,99421.91
2023-01-05T19:25:49.278Z,99412.00
2023-01-05T19:31:20.204Z,99414.69
2023-01-05T19:36:49.158Z,99411.75
2023-01-05T19:42:18.123Z,99400.16
2023-01-05T19:47:48.426Z,99399.97
2023-01-05T19:53:17.151Z,99397.47
2023-01-05T19:58:46.200Z,99392.50
2023-01-05T20:04:16.860Z,99393.13
2023-01-05T20:09:46.651Z,99386.72
2023-01-05T20:15:13.226Z,99395.00
2023-01-05T20:20:41.317Z,99389.59
2023-01-05T20:26:10.361Z,99396.66
2023-01-05T20:31:37.472Z,99392.06
2023-01-05T20:37:04.535Z,99387.50
2023-01-05T20:42:30.750Z,99384.00
2023-01-05T20:47:55.243Z,99395.56
2023-01-05T20:53:22.288Z,99382.50
2023-01-05T20:58:48.375Z,99393.50
2023-01-05T21:04:13.059Z,99393.50
2023-01-05T21:09:41.467Z,99389.34
2023-01-05T21:15:06.777Z,99386.63
2023-01-05T21:20:30.998Z,99385.16
2023-01-05T21:26:06.177Z,99376.03
2023-01-05T21:31:32.540Z,99379.97
2023-01-05T21:36:56.496Z,99389.66
2023-01-05T21:42:42.443Z,99389.66
2023-01-05T21:48:07.223Z,99393.19
2023-01-05T21:53:57.247Z,99393.19
2023-01-05T21:59:25.339Z,99393.19
2023-01-05T22:04:50.110Z,99393.19
2023-01-05T22:10:15.549Z,99393.19
2023-01-05T22:15:42.102Z,99393.19
2023-01-05T22:21:08.628Z,99393.19
2023-01-05T22:26:32.628Z,99393.19
2023-01-05T22:32:01.761Z,99393.19
2023-01-05T22:37:27.121Z,99393.19
2023-01-05T22:42:50.907Z,99393.19
2023-01-05T22:48:16.465Z,99393.19
2023-01-05T22:53:42.404Z,77057.97
2023-01-05T22:59:06.915Z,64992.06
2023-01-05T23:04:35.876Z,121117.06
2023-01-05T23:10:00.306Z,99393.19
2023-01-05T23:15:27.517Z,64992.06
2023-01-05T23:20:55.870Z,64992.06
2023-01-05T23:26:19.836Z,64992.06
2023-01-05T23:31:44.505Z,64992.06
2023-01-05T23:37:09.843Z,64992.06
2023-01-05T23:42:47.269Z,64992.06
2023-01-05T23:48:12.493Z,64992.06
2023-01-05T23:53:38.132Z,64992.06
2023-01-05T23:59:07.089Z,64992.06
